createdAt,value
2023-02-17T00:01:45.251Z,60.23
2023-02-17T00:04:33.593Z,58.90
2023-02-17T00:07:20.949Z,55.83
2023-02-17T00:10:08.602Z,56.87
2023-02-17T00:12:55.969Z,55.20
2023-02-17T00:15:43.412Z,54.13
2023-02-17T00:18:30.782Z,56.50
2023-02-17T00:21:19.884Z,57.70
2023-02-17T00:24:07.334Z,51.17
2023-02-17T00:26:54.938Z,54.33
2023-02-17T00:29:42.452Z,52.93
2023-02-17T00:32:29.813Z,53.63
2023-02-17T00:35:17.226Z,51.57
2023-02-17T00:38:04.576Z,48.60
2023-02-17T00:40:51.915Z,49.47
2023-02-17T00:43:39.309Z,46.47
2023-02-17T00:46:27.590Z,49.10
2023-02-17T00:49:16.971Z,46.17
2023-02-17T00:52:04.399Z,43.77
2023-02-17T00:54:51.771Z,47.47
2023-02-17T00:57:39.130Z,45.07
2023-02-17T01:00:26.789Z,47.70
2023-02-17T01:03:14.169Z,48.33
2023-02-17T01:06:05.775Z,45.57
2023-02-17T01:08:53.481Z,49.10
2023-02-17T01:11:41.135Z,46.63
2023-02-17T01:14:28.470Z,48.63
2023-02-17T01:17:15.873Z,48.97
2023-02-17T01:20:03.282Z,47.20
2023-02-17T01:22:50.672Z,46.70
2023-02-17T01:25:41.581Z,41.83
2023-02-17T01:28:31.167Z,41.30
2023-02-17T01:31:19.185Z,41.87
2023-02-17T01:34:06.597Z,37.37
2023-02-17T01:36:54.179Z,39.17
2023-02-17T01:39:41.513Z,39.47
2023-02-17T01:42:28.954Z,38.17
2023-02-17T01:45:16.258Z,36.67
2023-02-17T01:48:06.679Z,41.43
2023-02-17T01:50:55.803Z,36.80
2023-02-17T01:53:43.225Z,36.20
2023-02-17T01:56:31.983Z,42.83
2023-02-17T01:59:20.852Z,38.67
2023-02-17T02:02:08.646Z,39.47
2023-02-17T02:04:56.231Z,41.90
2023-02-17T02:07:44.475Z,41.57
2023-02-17T02:10:31.823Z,39.33
2023-02-17T02:13:19.167Z,41.13
2023-02-17T02:16:25.197Z,42.43
2023-02-17T02:19:21.862Z,44.37
2023-02-17T02:22:12.280Z,45.20
2023-02-17T02:25:28.652Z,48.70
2023-02-17T02:28:32.433Z,45.67
2023-02-17T02:31:45.844Z,48.73
2023-02-17T02:34:37.792Z,54.07
2023-02-17T02:37:27.329Z,52.47
2023-02-17T02:40:16.117Z,56.30
2023-02-17T02:43:04.418Z,59.03
2023-02-17T02:45:51.811Z,57.43
2023-02-17T02:48:39.583Z,54.83
2023-02-17T02:51:34.190Z,54.80
2023-02-17T02:54:29.699Z,60.63
2023-02-17T02:57:29.773Z,62.70
2023-02-17T03:00:24.346Z,69.07
2023-02-17T03:03:14.453Z,64.63
2023-02-17T03:06:09.016Z,62.07
2023-02-17T03:09:05.707Z,60.50
2023-02-17T03:11:54.079Z,60.97
2023-02-17T03:14:43.236Z,64.80
2023-02-17T03:17:34.113Z,64.17
2023-02-17T03:20:21.913Z,59.00
2023-02-17T03:23:09.602Z,56.87
2023-02-17T03:25:56.571Z,55.73
2023-02-17T03:28:43.915Z,54.73
2023-02-17T03:31:31.306Z,55.60
2023-02-17T03:34:18.314Z,55.27
2023-02-17T03:37:05.257Z,55.97
2023-02-17T03:39:52.250Z,54.97
2023-02-17T03:42:39.222Z,52.03
2023-02-17T03:45:26.339Z,47.97
2023-02-17T03:48:13.330Z,53.30
2023-02-17T03:51:13.205Z,51.50
2023-02-17T03:54:00.140Z,50.40
2023-02-17T03:56:47.117Z,50.97
2023-02-17T03:59:34.450Z,47.93
2023-02-17T04:02:21.383Z,46.83
2023-02-17T04:05:08.483Z,47.97
2023-02-17T04:07:55.558Z,45.60
2023-02-17T04:10:44.958Z,44.33
2023-02-17T04:13:32.366Z,45.10
2023-02-17T04:16:19.353Z,42.43
2023-02-17T04:19:09.375Z,43.47
2023-02-17T04:21:56.314Z,45.43
2023-02-17T04:24:43.274Z,49.03
2023-02-17T04:27:30.212Z,46.00
2023-02-17T04:30:17.238Z,46.97
2023-02-17T04:33:05.039Z,48.97
2023-02-17T04:35:59.255Z,49.47
2023-02-17T04:38:46.676Z,46.97
2023-02-17T04:41:34.033Z,51.30
2023-02-17T04:44:21.526Z,50.17
2023-02-17T04:47:08.855Z,48.67
2023-02-17T04:49:56.520Z,49.40
2023-02-17T04:52:43.962Z,48.50
2023-02-17T04:55:31.467Z,47.90
2023-02-17T04:58:19.568Z,49.10
2023-02-17T05:01:06.935Z,50.40
2023-02-17T05:03:54.319Z,45.47
2023-02-17T05:06:41.696Z,44.40
2023-02-17T05:09:29.061Z,44.30
2023-02-17T05:12:16.409Z,39.70
2023-02-17T05:15:04.109Z,37.60
2023-02-17T05:17:51.500Z,36.13
2023-02-17T05:20:38.842Z,39.10
2023-02-17T05:23:26.199Z,41.90
2023-02-17T05:26:13.597Z,37.83
2023-02-17T05:29:00.981Z,41.73
2023-02-17T05:31:48.442Z,37.27
2023-02-17T05:34:36.331Z,38.80
2023-02-17T05:37:23.759Z,37.37
2023-02-17T05:40:11.741Z,36.83
2023-02-17T05:42:59.203Z,36.13
2023-02-17T05:45:46.704Z,37.87
2023-02-17T05:48:34.148Z,40.00
2023-02-17T05:51:21.531Z,39.50
2023-02-17T05:54:08.954Z,41.17
2023-02-17T05:56:56.285Z,43.43
2023-02-17T05:59:43.695Z,41.33
2023-02-17T06:02:31.078Z,46.00
2023-02-17T06:05:18.516Z,45.03
2023-02-17T06:08:06.087Z,45.53
2023-02-17T06:10:54.023Z,47.37
2023-02-17T06:13:41.396Z,46.07
2023-02-17T06:16:28.842Z,54.03
2023-02-17T06:19:16.235Z,47.73
2023-02-17T06:22:03.605Z,51.47
2023-02-17T06:24:50.928Z,52.40
2023-02-17T06:27:38.295Z,52.07
2023-02-17T06:30:25.675Z,47.30
2023-02-17T06:33:13.060Z,43.43
2023-02-17T06:36:00.520Z,44.53
2023-02-17T06:38:47.898Z,45.53
2023-02-17T06:41:35.249Z,37.80
2023-02-17T06:44:22.604Z,40.20
2023-02-17T06:47:10.232Z,41.70
2023-02-17T06:49:57.586Z,41.50
2023-02-17T06:52:45.026Z,41.33
2023-02-17T06:55:34.650Z,40.83
2023-02-17T06:58:22.218Z,39.87
2023-02-17T07:01:15.954Z,38.37
2023-02-17T07:04:03.464Z,36.17
2023-02-17T07:06:50.853Z,35.83
2023-02-17T07:09:38.816Z,34.10
2023-02-17T07:12:27.761Z,33.30
2023-02-17T07:15:15.207Z,34.50
2023-02-17T07:18:03.100Z,34.80
2023-02-17T07:20:50.551Z,33.70
2023-02-17T07:23:39.416Z,35.23
2023-02-17T07:26:26.792Z,33.20
2023-02-17T07:29:14.229Z,34.10
2023-02-17T07:32:02.278Z,38.83
2023-02-17T07:34:49.740Z,37.33
2023-02-17T07:37:37.543Z,34.37
2023-02-17T07:40:25.239Z,40.17
2023-02-17T07:43:12.699Z,44.80
2023-02-17T07:46:00.175Z,49.40
2023-02-17T07:48:48.380Z,53.93
2023-02-17T07:51:36.107Z,55.07
2023-02-17T07:54:24.042Z,55.23
2023-02-17T07:57:11.413Z,55.73
2023-02-17T07:59:58.775Z,53.40
2023-02-17T08:02:46.257Z,58.43
2023-02-17T08:05:33.636Z,57.23
2023-02-17T08:08:39.874Z,60.20
2023-02-17T08:11:48.205Z,56.00
2023-02-17T08:14:37.265Z,60.87
2023-02-17T08:17:24.630Z,59.40
2023-02-17T08:20:13.572Z,57.17
2023-02-17T08:23:01.100Z,55.83
2023-02-17T08:25:48.462Z,58.60
2023-02-17T08:28:35.860Z,58.73
2023-02-17T08:31:24.972Z,56.23
2023-02-17T08:34:13.198Z,52.63
2023-02-17T08:37:04.623Z,51.53
2023-02-17T08:39:52.001Z,52.00
2023-02-17T08:42:39.775Z,53.50
2023-02-17T08:45:27.157Z,53.77
2023-02-17T08:48:14.482Z,47.17
2023-02-17T08:51:01.889Z,46.83
2023-02-17T08:53:49.260Z,49.97
2023-02-17T08:56:37.224Z,50.37
2023-02-17T08:59:24.626Z,47.50
2023-02-17T09:02:12.137Z,41.83
2023-02-17T09:08:11.177Z,45.03
2023-02-17T09:10:58.714Z,43.10
2023-02-17T09:13:46.262Z,42.27
2023-02-17T09:16:33.893Z,40.37
2023-02-17T09:19:21.882Z,33.83
2023-02-17T09:22:09.592Z,41.97
2023-02-17T09:24:58.411Z,39.03
2023-02-17T09:27:45.804Z,38.47
2023-02-17T09:30:33.379Z,34.90
2023-02-17T09:33:20.869Z,36.07
2023-02-17T09:36:09.638Z,36.40
2023-02-17T09:38:57.318Z,33.20
2023-02-17T09:41:47.607Z,33.33
2023-02-17T09:44:42.438Z,33.60
2023-02-17T09:47:32.749Z,32.20
2023-02-17T09:50:26.824Z,28.73
2023-02-17T09:53:17.224Z,31.90
2023-02-17T09:56:06.400Z,32.30
2023-02-17T09:58:56.360Z,29.70
2023-02-17T10:01:45.061Z,33.73
2023-02-17T10:04:37.174Z,29.43
2023-02-17T10:07:30.050Z,30.40
2023-02-17T10:10:23.210Z,26.77
2023-02-17T10:13:10.671Z,26.13
2023-02-17T10:16:02.037Z,28.33
2023-02-17T10:18:52.787Z,27.27
2023-02-17T10:21:43.786Z,26.43
2023-02-17T10:24:31.221Z,28.13
2023-02-17T10:27:22.885Z,25.23
2023-02-17T10:30:28.979Z,28.47
2023-02-17T10:33:26.468Z,23.23
2023-02-17T10:36:33.865Z,24.97
2023-02-17T10:39:40.021Z,25.80
2023-02-17T10:42:29.566Z,20.37
2023-02-17T10:45:32.061Z,25.33
2023-02-17T10:48:24.636Z,23.10
2023-02-17T10:51:15.047Z,21.10
2023-02-17T10:54:08.123Z,22.27
2023-02-17T10:56:56.537Z,20.67
2023-02-17T10:59:45.020Z,20.83
2023-02-17T11:02:46.249Z,21.73
2023-02-17T11:05:35.068Z,20.90
2023-02-17T11:08:30.822Z,22.87
2023-02-17T11:11:19.995Z,21.30
2023-02-17T11:14:07.609Z,21.63
2023-02-17T11:17:24.148Z,17.83
2023-02-17T11:20:14.376Z,18.97
2023-02-17T11:23:01.975Z,19.00
2023-02-17T11:25:57.492Z,18.20
2023-02-17T11:28:44.816Z,20.07
2023-02-17T11:31:32.442Z,18.47
2023-02-17T11:34:24.239Z,19.13
2023-02-17T11:37:14.674Z,18.77
2023-02-17T11:40:15.370Z,17.23
2023-02-17T11:43:03.466Z,18.03
2023-02-17T11:45:50.952Z,19.57
2023-02-17T11:48:57.006Z,18.70
2023-02-17T11:52:03.266Z,15.97
2023-02-17T11:54:50.595Z,17.93
2023-02-17T11:57:45.366Z,20.33
2023-02-17T12:00:42.042Z,16.33
2023-02-17T12:03:29.385Z,17.33
2023-02-17T12:06:22.910Z,17.47
2023-02-17T12:09:13.307Z,14.93
2023-02-17T12:12:12.582Z,20.13
2023-02-17T12:15:02.966Z,16.10
2023-02-17T12:17:50.357Z,18.87
2023-02-17T12:20:37.712Z,19.70
2023-02-17T12:23:30.582Z,16.67
2023-02-17T12:26:34.985Z,16.20
2023-02-17T12:29:22.333Z,17.10
2023-02-17T12:32:19.144Z,15.10
2023-02-17T12:35:27.091Z,15.30
2023-02-17T12:38:17.165Z,13.97
2023-02-17T12:41:15.662Z,14.63
2023-02-17T12:44:07.640Z,13.37
2023-02-17T12:46:58.082Z,14.27
2023-02-17T12:49:55.208Z,10.60
2023-02-17T12:52:45.025Z,14.10
2023-02-17T12:55:48.205Z,12.90
2023-02-17T12:58:36.231Z,12.97
2023-02-17T13:01:26.136Z,10.70
2023-02-17T13:04:15.798Z,11.23
2023-02-17T13:07:20.314Z,10.90
2023-02-17T13:10:18.612Z,11.70
2023-02-17T13:13:07.747Z,13.13
2023-02-17T13:16:07.594Z,10.27
2023-02-17T13:18:55.385Z,9.20
2023-02-17T13:21:56.567Z,10.47
2023-02-17T13:24:54.061Z,9.73
2023-02-17T13:27:41.712Z,9.80
2023-02-17T13:30:31.601Z,11.00
2023-02-17T13:33:22.006Z,11.67
2023-02-17T13:36:14.545Z,10.67
2023-02-17T13:39:08.238Z,8.03
2023-02-17T13:41:56.719Z,9.47
2023-02-17T13:44:46.393Z,10.40
2023-02-17T13:47:38.507Z,12.90
2023-02-17T13:50:36.623Z,8.70
2023-02-17T13:53:32.915Z,13.77
2023-02-17T13:56:28.469Z,14.13
2023-02-17T13:59:18.166Z,12.47
2023-02-17T14:02:30.343Z,11.67
2023-02-17T14:05:27.226Z,15.30
2023-02-17T14:08:32.670Z,12.83
2023-02-17T14:11:21.004Z,17.83
2023-02-17T14:14:08.439Z,16.17
2023-02-17T14:17:06.547Z,13.83
2023-02-17T14:19:53.999Z,13.17
2023-02-17T14:22:41.708Z,12.30
2023-02-17T14:25:30.322Z,11.33
2023-02-17T14:28:22.300Z,7.57
2023-02-17T14:31:13.219Z,10.57
2023-02-17T14:34:01.980Z,11.70
2023-02-17T14:36:49.313Z,13.93
2023-02-17T14:39:36.785Z,8.20
2023-02-17T14:42:24.156Z,11.10
2023-02-17T14:45:11.595Z,10.33
2023-02-17T14:47:58.990Z,12.13
2023-02-17T14:50:46.641Z,11.50
2023-02-17T14:53:36.440Z,22.17
2023-02-17T14:56:35.383Z,17.40
2023-02-17T14:59:22.831Z,12.50
2023-02-17T15:02:17.692Z,15.03
2023-02-17T15:05:05.196Z,12.57
2023-02-17T15:07:52.637Z,10.57
2023-02-17T15:10:40.302Z,14.13
2023-02-17T15:13:27.749Z,16.33
2023-02-17T15:16:16.113Z,14.33
2023-02-17T15:19:03.538Z,17.97
2023-02-17T15:21:51.903Z,16.43
2023-02-17T15:24:39.807Z,21.57
2023-02-17T15:27:27.251Z,15.57
2023-02-17T15:30:18.387Z,16.63
2023-02-17T15:33:09.447Z,23.37
2023-02-17T15:35:56.967Z,11.90
2023-02-17T15:38:44.325Z,15.17
2023-02-17T15:41:31.807Z,19.70
2023-02-17T15:44:20.755Z,23.53
2023-02-17T15:47:12.738Z,17.10
2023-02-17T15:50:00.110Z,20.23
2023-02-17T15:52:47.645Z,16.73
2023-02-17T15:55:35.636Z,23.07
2023-02-17T15:58:23.776Z,21.17
2023-02-17T16:01:18.057Z,19.20
2023-02-17T16:04:06.723Z,19.63
2023-02-17T16:06:54.123Z,18.67
2023-02-17T16:09:41.571Z,25.20
2023-02-17T16:12:28.976Z,26.33
2023-02-17T16:15:18.132Z,16.70
2023-02-17T16:18:06.243Z,20.57
2023-02-17T16:20:53.657Z,20.10
2023-02-17T16:23:41.850Z,19.60
2023-02-17T16:26:34.603Z,13.93
2023-02-17T16:29:22.476Z,23.97
2023-02-17T16:32:13.229Z,17.37
2023-02-17T16:35:00.770Z,17.50
2023-02-17T16:37:59.209Z,16.10
2023-02-17T16:40:50.771Z,21.63
2023-02-17T16:43:38.204Z,15.70
2023-02-17T16:46:29.648Z,28.93
2023-02-17T16:49:32.457Z,18.13
2023-02-17T16:52:24.921Z,17.67
2023-02-17T16:55:16.283Z,19.97
2023-02-17T16:58:04.318Z,20.20
2023-02-17T17:00:53.217Z,20.37
2023-02-17T17:03:41.564Z,18.03
2023-02-17T17:06:30.364Z,13.50
2023-02-17T17:09:23.018Z,16.47
2023-02-17T17:12:11.449Z,16.43
2023-02-17T17:14:58.835Z,20.67
2023-02-17T17:17:53.849Z,16.40
2023-02-17T17:20:41.861Z,19.77
2023-02-17T17:23:29.310Z,17.13
2023-02-17T17:26:22.502Z,18.93
2023-02-17T17:29:10.730Z,24.13
2023-02-17T17:31:58.193Z,17.57
2023-02-17T17:34:45.697Z,24.87
2023-02-17T17:37:33.036Z,16.27
2023-02-17T17:40:24.967Z,23.33
2023-02-17T17:43:12.305Z,24.23
2023-02-17T17:45:59.714Z,16.87
2023-02-17T17:48:47.535Z,20.83
2023-02-17T17:51:35.119Z,20.13
2023-02-17T17:54:22.456Z,17.47
2023-02-17T17:57:10.045Z,18.47
2023-02-17T17:59:57.942Z,18.50
2023-02-17T18:02:45.550Z,17.03
2023-02-17T18:05:32.928Z,19.60
2023-02-17T18:08:20.339Z,18.80
2023-02-17T18:11:08.633Z,21.63
2023-02-17T18:13:58.258Z,20.70
2023-02-17T18:16:46.884Z,19.20
2023-02-17T18:19:34.535Z,18.70
2023-02-17T18:22:22.734Z,25.63
2023-02-17T18:25:10.454Z,15.30
2023-02-17T18:27:57.812Z,20.30
2023-02-17T18:30:45.304Z,14.87
2023-02-17T18:33:32.676Z,27.40
2023-02-17T18:36:22.030Z,16.63
2023-02-17T18:39:09.397Z,18.33
2023-02-17T18:41:56.762Z,17.97
2023-02-17T18:44:44.539Z,21.43
2023-02-17T18:47:32.225Z,24.83
2023-02-17T18:50:19.661Z,21.77
2023-02-17T18:53:07.059Z,18.03
2023-02-17T18:55:54.405Z,17.40
2023-02-17T18:58:41.820Z,23.30
2023-02-17T19:01:32.030Z,25.77
2023-02-17T19:04:19.415Z,19.17
2023-02-17T19:07:07.192Z,21.03
2023-02-17T19:09:54.640Z,22.47
2023-02-17T19:12:41.992Z,21.03
2023-02-17T19:15:29.497Z,20.73
2023-02-17T19:18:16.989Z,27.10
2023-02-17T19:21:04.453Z,27.43
2023-02-17T19:23:52.070Z,18.53
2023-02-17T19:26:39.556Z,38.17
2023-02-17T19:29:26.874Z,20.57
2023-02-17T19:32:14.292Z,30.57
2023-02-17T19:35:01.754Z,25.17
2023-02-17T19:37:49.230Z,20.27
2023-02-17T19:40:36.930Z,17.47
2023-02-17T19:43:24.336Z,20.77
2023-02-17T19:46:15.714Z,23.17
2023-02-17T19:49:04.459Z,17.43
2023-02-17T19:51:53.755Z,24.70
2023-02-17T19:54:41.101Z,25.43
2023-02-17T19:57:28.522Z,21.97
2023-02-17T20:00:15.981Z,19.37
2023-02-17T20:03:03.393Z,26.43
2023-02-17T20:05:50.734Z,18.63
2023-02-17T20:08:38.633Z,22.67
2023-02-17T20:11:26.125Z,16.13
2023-02-17T20:14:13.723Z,21.53
2023-02-17T20:17:01.083Z,18.83
2023-02-17T20:19:48.441Z,16.17
2023-02-17T20:22:35.798Z,16.23
2023-02-17T20:25:23.170Z,12.43
2023-02-17T20:28:10.623Z,18.60
2023-02-17T20:30:58.026Z,16.43
2023-02-17T20:33:45.409Z,26.27
2023-02-17T20:36:32.937Z,15.67
2023-02-17T20:39:20.361Z,21.73
2023-02-17T20:42:07.786Z,17.37
2023-02-17T20:44:56.205Z,17.27
2023-02-17T20:47:43.594Z,22.63
2023-02-17T20:50:31.076Z,19.17
2023-02-17T20:53:18.442Z,17.27
2023-02-17T20:56:11.896Z,15.80
2023-02-17T20:58:59.220Z,19.00
2023-02-17T21:01:47.080Z,19.13
2023-02-17T21:04:34.542Z,19.27
2023-02-17T21:07:21.885Z,14.17
2023-02-17T21:10:09.966Z,16.00
2023-02-17T21:12:57.366Z,18.13
2023-02-17T21:15:45.120Z,20.83
2023-02-17T21:18:33.902Z,21.73
2023-02-17T21:21:21.369Z,19.27
2023-02-17T21:24:08.930Z,21.23
2023-02-17T21:26:56.328Z,20.83
2023-02-17T21:29:43.694Z,14.47
2023-02-17T21:32:31.137Z,19.20
2023-02-17T21:35:18.659Z,18.17
2023-02-17T21:38:06.007Z,20.30
2023-02-17T21:40:53.412Z,16.97
2023-02-17T21:43:59.446Z,17.70
2023-02-17T21:46:46.940Z,18.47
2023-02-17T21:49:34.359Z,20.23
2023-02-17T21:52:22.424Z,18.17
2023-02-17T21:55:09.829Z,17.00
2023-02-17T21:57:57.232Z,19.43
2023-02-17T22:00:44.639Z,18.00
2023-02-17T22:03:32.145Z,13.03
2023-02-17T22:06:21.525Z,18.20
2023-02-17T22:09:10.167Z,17.07
2023-02-17T22:11:57.592Z,15.47
2023-02-17T22:14:44.975Z,19.47
2023-02-17T22:17:32.404Z,15.70
2023-02-17T22:20:19.821Z,15.77
2023-02-17T22:23:07.190Z,20.60
2023-02-17T22:25:54.574Z,21.63
2023-02-17T22:28:42.172Z,23.53
2023-02-17T22:31:30.522Z,21.87
2023-02-17T22:34:18.236Z,21.80
2023-02-17T22:37:05.634Z,17.13
2023-02-17T22:39:53.773Z,16.63
2023-02-17T22:42:41.111Z,17.00
2023-02-17T22:45:28.479Z,21.03
2023-02-17T22:48:15.911Z,19.67
2023-02-17T22:51:07.208Z,20.50
2023-02-17T22:53:54.638Z,17.97
2023-02-17T22:56:42.043Z,19.70
2023-02-17T22:59:29.428Z,23.57
2023-02-17T23:02:16.798Z,15.00
2023-02-17T23:05:04.236Z,17.00
2023-02-17T23:07:52.715Z,15.10
2023-02-17T23:10:41.340Z,24.90
2023-02-17T23:13:28.719Z,21.23
2023-02-17T23:16:21.448Z,23.30
2023-02-17T23:19:10.079Z,15.43
2023-02-17T23:21:58.796Z,15.53
2023-02-17T23:24:47.521Z,32.63
2023-02-17T23:27:34.898Z,18.77
2023-02-17T23:30:23.155Z,19.00
2023-02-17T23:33:10.698Z,20.43
2023-02-17T23:35:58.061Z,17.77
2023-02-17T23:38:45.453Z,22.90
2023-02-17T23:41:32.807Z,21.47
2023-02-17T23:44:20.189Z,19.87
2023-02-17T23:47:07.538Z,21.60
2023-02-17T23:49:54.887Z,16.87
2023-02-17T23:52:42.249Z,18.37
2023-02-17T23:55:29.672Z,21.93
2023-02-17T23:58:17.789Z,25.03
